Time;durP1;ratioP1;P1;durP2;ratioP2;P2;SDS_P1;SDS_P2;PMS_P1;PMS_P2;Temp;Humidity;BMP_temperature;BMP_pressure;BME280_temperature;BME280_humidity;BME280_pressure;Samples;Min_cycle;Max_cycle;Signal;HPM_P1;HPM_P2
2022/12/26 00:00:07;;;;;;;9.28;6.20;;;;;;;1.23;80.92;101043.02;1737090;81;21041;-68
2022/12/26 00:02:34;;;;;;;6.80;6.00;;;;;;;1.19;80.74;101042.72;1746031;80;21922;-69
2022/12/26 00:05:01;;;;;;;7.33;6.20;;;;;;;1.14;80.66;101049.35;1732816;80;21074;-67
2022/12/26 00:07:28;;;;;;;8.08;6.25;;;;;;;1.12;80.58;101049.40;1750178;81;21522;-69
2022/12/26 00:09:55;;;;;;;7.03;5.97;;;;;;;1.11;80.52;101053.36;1723957;81;21112;-68
2022/12/26 00:12:22;;;;;;;7.90;6.47;;;;;;;1.11;80.44;101050.75;1724213;81;21038;-68
2022/12/26 00:14:49;;;;;;;6.78;5.75;;;;;;;1.07;80.35;101055.20;1718155;81;21951;-68
2022/12/26 00:17:18;;;;;;;6.87;5.62;;;;;;;1.05;80.26;101058.27;1746120;81;21023;-68
2022/12/26 00:19:45;;;;;;;7.17;5.92;;;;;;;1.03;80.15;101064.42;1737902;81;21051;-69
2022/12/26 00:22:17;;;;;;;7.45;5.95;;;;;;;0.99;80.03;101061.08;1726923;82;21087;-70
2022/12/26 00:24:46;;;;;;;6.92;5.42;;;;;;;0.95;79.97;101065.94;1724123;82;21063;-69
2022/12/26 00:27:13;;;;;;;8.50;6.28;;;;;;;0.94;79.93;101055.59;1741997;81;21836;-67
2022/12/26 00:29:44;;;;;;;7.10;6.00;;;;;;;0.93;79.86;101051.28;1737280;81;21650;-68
2022/12/26 00:32:16;;;;;;;7.72;6.30;;;;;;;0.93;79.82;101061.69;1727080;81;21035;-69
2022/12/26 00:34:45;;;;;;;7.07;5.60;;;;;;;0.91;79.78;101058.28;1740776;81;21106;-68
2022/12/26 00:37:17;;;;;;;7.35;5.72;;;;;;;0.88;79.68;101060.98;1750472;81;21026;-68
2022/12/26 00:39:45;;;;;;;7.78;6.30;;;;;;;0.85;79.63;101069.70;1756454;80;21767;-68
2022/12/26 00:42:13;;;;;;;7.20;5.78;;;;;;;0.82;79.61;101064.59;1752925;80;21101;-67
2022/12/26 00:44:40;;;;;;;7.22;5.90;;;;;;;0.78;79.57;101059.09;1757873;80;21065;-69
2022/12/26 00:47:09;;;;;;;6.80;5.50;;;;;;;0.74;79.50;101064.80;1758493;80;21019;-68
2022/12/26 00:49:37;;;;;;;8.63;7.35;;;;;;;0.71;79.47;101066.20;1758995;80;21033;-68
2022/12/26 00:52:06;;;;;;;7.15;6.05;;;;;;;0.67;79.37;101059.36;1763272;80;21933;-68
2022/12/26 00:54:36;;;;;;;7.60;5.60;;;;;;;0.64;79.31;101052.11;1746351;80;21050;-70
2022/12/26 00:57:04;;;;;;;7.28;6.10;;;;;;;0.62;79.29;101050.00;1746286;82;21054;-68
2022/12/26 00:59:30;;;;;;;7.55;6.55;;;;;;;0.61;79.25;101056.10;1734369;81;21014;-69
2022/12/26 01:01:57;;;;;;;7.45;6.65;;;;;;;0.60;79.21;101059.60;1744165;82;21021;-69
2022/12/26 01:04:25;;;;;;;6.28;5.67;;;;;;;0.57;79.11;101056.61;1744386;81;21841;-69
2022/12/26 01:06:54;;;;;;;6.62;5.70;;;;;;;0.55;79.13;101054.51;1714883;81;21027;-68
2022/12/26 01:09:21;;;;;;;6.60;5.17;;;;;;;0.57;79.12;101055.31;1725124;80;21458;-68
2022/12/26 01:11:54;;;;;;;6.50;5.75;;;;;;;0.57;79.10;101057.91;1744721;81;21676;-68
2022/12/26 01:14:23;;;;;;;6.95;5.78;;;;;;;0.58;79.11;101059.64;1740278;81;21007;-68
2022/12/26 01:16:54;;;;;;;7.03;5.80;;;;;;;0.57;79.11;101059.21;1752101;80;22544;-67
2022/12/26 01:19:22;;;;;;;6.92;5.58;;;;;;;0.55;79.19;101068.36;1752478;79;21045;-68
2022/12/26 01:21:49;;;;;;;7.35;6.05;;;;;;;0.57;79.25;101062.66;1747119;81;21043;-68
2022/12/26 01:24:20;;;;;;;6.70;6.00;;;;;;;0.59;79.27;101060.50;1757209;79;21054;-68
2022/12/26 01:26:46;;;;;;;7.55;5.90;;;;;;;0.60;79.26;101064.34;1752429;80;21082;-68
2022/12/26 01:29:14;;;;;;;7.62;6.05;;;;;;;0.60;79.27;101070.84;1768304;80;21803;-68
2022/12/26 01:31:42;;;;;;;6.75;5.85;;;;;;;0.59;79.25;101070.89;1749604;80;21106;-67
2022/12/26 01:34:13;;;;;;;6.58;5.87;;;;;;;0.55;79.21;101068.80;1750773;81;21087;-68
2022/12/26 01:36:42;;;;;;;7.08;6.08;;;;;;;0.52;79.24;101071.50;1748012;81;21077;-67
2022/12/26 01:39:11;;;;;;;5.78;5.17;;;;;;;0.52;79.21;101069.75;1758372;79;21063;-68
2022/12/26 01:41:39;;;;;;;6.70;5.30;;;;;;;0.52;79.11;101071.50;1749464;79;21949;-68
2022/12/26 01:44:46;;;;;;;6.12;5.53;;;;;;;0.46;79.02;101079.00;1750622;80;21057;-68
2022/12/26 01:47:16;;;;;;;5.95;5.10;;;;;;;0.44;78.98;101078.64;1765051;79;21628;-68
2022/12/26 01:49:48;;;;;;;6.60;5.28;;;;;;;0.40;78.96;101076.58;1776618;79;22227;-68
2022/12/26 01:52:21;;;;;;;6.28;5.60;;;;;;;0.39;78.95;101082.67;1754342;79;21136;-67
2022/12/26 01:54:50;;;;;;;;;;;;;;;0.40;78.97;101074.43;1773272;80;21834;-68
2022/12/26 01:57:31;;;;;;;5.85;5.25;;;;;;;0.41;78.95;101074.83;1764566;80;20151;-69
2022/12/26 01:59:59;;;;;;;5.85;5.22;;;;;;;0.41;78.95;101082.18;1736616;81;21026;-68
2022/12/26 02:02:27;;;;;;;6.03;5.40;;;;;;;0.40;78.92;101077.87;1735468;81;21163;-68
2022/12/26 02:07:44;;;;;;;6.15;5.40;;;;;;;0.40;78.93;101073.12;1736658;81;21949;-68
2022/12/26 02:10:19;;;;;;;6.25;5.22;;;;;;;0.40;78.97;101075.28;1757201;80;21027;-69
2022/12/26 02:12:49;;;;;;;6.45;5.72;;;;;;;0.44;78.91;101071.70;1721003;81;21334;-67
2022/12/26 02:15:18;;;;;;;7.17;5.65;;;;;;;0.44;78.88;101072.99;1749898;81;21583;-68
2022/12/26 02:17:48;;;;;;;6.35;5.55;;;;;;;0.45;78.88;101085.54;1726165;80;21216;-67
2022/12/26 02:20:23;;;;;;;6.55;5.85;;;;;;;0.43;78.87;101080.39;1748926;80;22618;-68
2022/12/26 02:23:11;;;;;;;6.37;5.65;;;;;;;0.42;78.84;101074.78;1762373;80;21051;-68
2022/12/26 02:26:00;;;;;;;6.85;6.15;;;;;;;0.41;78.81;101074.38;1747692;80;21019;-68
2022/12/26 02:28:58;;;;;;;7.78;6.45;;;;;;;0.40;78.83;101082.23;1755051;80;21039;-68
2022/12/26 02:32:10;;;;;;;6.15;5.55;;;;;;;0.37;78.77;101073.19;1755791;80;20992;-68
2022/12/26 02:35:04;;;;;;;6.80;5.17;;;;;;;0.36;78.74;101074.09;1769990;80;22913;-68
2022/12/26 02:37:44;;;;;;;;;;;;;;;0.32;78.67;101073.77;1748624;81;21026;-67
2022/12/26 02:40:55;;;;;;;10.25;6.62;;;;;;;0.27;78.62;101077.77;1771547;80;20132;-68
2022/12/26 02:43:43;;;;;;;9.70;8.70;;;;;;;0.23;78.61;101082.20;1726964;81;21022;-69
2022/12/26 02:49:23;;;;;;;7.37;6.55;;;;;;;0.25;78.68;101090.81;1755539;80;21853;-68
2022/12/26 03:15:10;;;;;;;6.20;5.37;;;;;;;0.34;78.57;101099.27;1754987;81;21090;-69
2022/12/26 03:17:42;;;;;;;6.25;5.45;;;;;;;0.32;78.52;101093.26;1785187;80;22488;-68
2022/12/26 03:20:14;;;;;;;8.05;5.22;;;;;;;0.30;78.52;101089.41;1745614;80;21097;-67
2022/12/26 03:22:50;;;;;;;6.35;5.67;;;;;;;0.31;78.49;101095.01;1754221;81;21086;-68
2022/12/26 03:28:24;;;;;;;6.10;5.25;;;;;;;0.32;78.43;101086.31;1752299;80;21082;-67
2022/12/26 03:30:53;;;;;;;6.37;5.33;;;;;;;0.32;78.41;101085.47;1775319;79;21943;-68
2022/12/26 03:36:40;;;;;;;5.28;4.78;;;;;;;0.34;78.36;101088.87;1701283;83;21494;-68
2022/12/26 04:44:13;;;;;;;6.20;5.20;;;;;;;0.10;77.47;101130.17;1757358;81;21966;-67
2022/12/26 04:46:44;;;;;;;5.70;5.08;;;;;;;0.10;77.38;101128.87;1749987;80;21000;-67
2022/12/26 04:52:01;;;;;;;5.30;4.55;;;;;;;0.09;77.33;101139.27;1737335;81;21517;-68
2022/12/26 04:54:29;;;;;;;5.87;5.28;;;;;;;0.07;77.33;101134.12;1763824;81;21018;-69
2022/12/26 04:56:56;;;;;;;10.25;9.23;;;;;;;0.08;77.33;101133.67;1765122;80;22559;-67
2022/12/26 04:59:24;;;;;;;17.07;14.33;;;;;;;0.09;77.34;101137.97;1747490;81;21027;-68
2022/12/26 05:10:26;;;;;;;5.45;4.85;;;;;;;0.09;77.23;101135.37;1739313;81;21944;-68
2022/12/26 05:12:57;;;;;;;6.30;4.78;;;;;;;0.10;77.22;101139.71;1719522;81;21063;-68
2022/12/26 05:15:23;;;;;;;5.67;4.78;;;;;;;0.11;77.22;101138.81;1736783;80;21012;-68
2022/12/26 05:29:02;;;;;;;5.30;4.80;;;;;;;0.08;76.94;101150.55;1736719;81;21086;-68
2022/12/26 05:31:29;;;;;;;6.97;5.60;;;;;;;0.07;76.86;101150.16;1736579;80;22007;-67
2022/12/26 05:34:04;;;;;;;6.62;5.28;;;;;;;0.06;76.81;101141.95;1732661;82;21016;-67
2022/12/26 05:36:40;;;;;;;5.28;4.78;;;;;;;0.07;76.78;101139.77;1729539;80;21958;-67
2022/12/26 05:39:07;;;;;;;5.03;4.53;;;;;;;0.07;76.75;101152.30;1710378;81;21007;-68
2022/12/26 05:41:36;;;;;;;5.35;4.70;;;;;;;0.07;76.74;101149.70;1744378;81;21498;-67
2022/12/26 05:44:03;;;;;;;5.45;4.72;;;;;;;0.10;76.76;101160.48;1746774;81;21522;-67
2022/12/26 05:46:30;;;;;;;5.90;4.87;;;;;;;0.13;76.77;101168.20;1747397;81;21051;-67
2022/12/26 05:48:57;;;;;;;5.40;4.85;;;;;;;0.14;76.75;101169.45;1729815;81;21921;-67
2022/12/26 05:51:23;;;;;;;5.50;4.60;;;;;;;0.16;76.72;101170.71;1777922;80;20973;-68
2022/12/26 05:53:50;;;;;;;4.75;4.15;;;;;;;0.14;76.69;101175.95;1744282;80;21077;-67
2022/12/26 05:56:17;;;;;;;5.25;4.50;;;;;;;0.13;76.63;101181.19;1750790;80;22119;-67
2022/12/26 05:58:45;;;;;;;5.55;4.60;;;;;;;0.12;76.59;101188.58;1727435;80;21028;-66
2022/12/26 06:01:17;;;;;;;5.92;5.00;;;;;;;0.11;76.55;101189.02;1733283;80;21553;-67
2022/12/26 06:03:46;;;;;;;4.97;4.33;;;;;;;0.13;76.49;101195.47;1762713;80;22071;-66
2022/12/26 06:06:13;;;;;;;4.60;4.20;;;;;;;0.11;76.40;101207.65;1754371;81;21077;-67
2022/12/26 06:08:40;;;;;;;4.30;3.83;;;;;;;0.10;76.29;101212.44;1765489;80;21023;-67
2022/12/26 06:11:11;;;;;;;4.42;4.00;;;;;;;0.09;76.25;101213.30;1760466;80;21011;-67
2022/12/26 06:13:38;;;;;;;5.80;5.20;;;;;;;0.10;76.20;101211.14;1739216;80;21807;-68
2022/12/26 06:16:07;;;;;;;4.37;3.98;;;;;;;0.07;76.11;101215.94;1731653;80;21449;-67
2022/12/26 06:18:33;;;;;;;4.95;4.45;;;;;;;0.05;76.04;101215.12;1743497;81;21016;-67
2022/12/26 06:21:07;;;;;;;5.22;4.62;;;;;;;0.05;76.00;101220.77;1745919;80;21082;-66
2022/12/26 06:23:34;;;;;;;4.87;4.37;;;;;;;0.05;75.93;101216.42;1733771;80;21071;-67
2022/12/26 06:26:01;;;;;;;3.77;3.47;;;;;;;0.03;75.83;101214.76;1741680;80;22776;-67
2022/12/26 06:28:28;;;;;;;4.72;4.03;;;;;;;0.05;75.79;101220.77;1742592;81;21482;-66
2022/12/26 06:31:06;;;;;;;4.42;3.60;;;;;;;0.05;75.70;101220.32;1743091;80;21067;-67
2022/12/26 06:33:33;;;;;;;4.33;3.87;;;;;;;0.06;75.64;101228.52;1744912;80;21022;-67
2022/12/26 06:36:06;;;;;;;5.40;4.87;;;;;;;0.04;75.51;101227.70;1740218;80;21016;-67
2022/12/26 06:38:32;;;;;;;4.65;3.92;;;;;;;0.04;75.45;101229.45;1734698;81;21895;-68
2022/12/26 06:40:59;;;;;;;9.35;8.18;;;;;;;0.04;75.39;101226.85;1747060;81;21091;-67
2022/12/26 06:43:25;;;;;;;9.90;8.20;;;;;;;0.06;75.31;101228.97;1738175;81;21063;-68
2022/12/26 06:45:59;;;;;;;7.53;6.30;;;;;;;0.07;75.27;101226.77;1744418;81;21159;-68
2022/12/26 06:48:26;;;;;;;5.30;4.50;;;;;;;0.07;75.21;101222.88;1726812;81;21459;-67
2022/12/26 06:50:54;;;;;;;5.92;4.25;;;;;;;0.09;75.24;101226.28;1742185;80;23623;-67
2022/12/26 06:53:23;;;;;;;4.25;3.85;;;;;;;0.11;75.22;101228.43;1736263;80;21057;-67
2022/12/26 06:55:51;;;;;;;5.05;3.85;;;;;;;0.11;75.13;101227.98;1750310;81;21012;-67
2022/12/26 06:58:18;;;;;;;4.22;3.83;;;;;;;0.12;75.16;101225.80;1748133;81;21020;-68
2022/12/26 07:00:46;;;;;;;4.30;3.90;;;;;;;0.14;75.05;101223.16;1747401;80;20999;-68
2022/12/26 07:03:12;;;;;;;6.67;6.00;;;;;;;0.14;75.06;101219.27;1745754;81;21893;-68
2022/12/26 07:05:39;;;;;;;6.50;5.20;;;;;;;0.16;75.09;101216.17;1744180;80;21004;-68
2022/12/26 07:08:06;;;;;;;7.50;6.75;;;;;;;0.16;75.12;101210.53;1745150;80;21023;-68
2022/12/26 07:10:36;;;;;;;5.65;4.97;;;;;;;0.19;75.16;101213.50;1736132;80;21047;-67
2022/12/26 07:13:03;;;;;;;4.87;4.10;;;;;;;0.19;75.09;101214.80;1762758;80;21091;-67
2022/12/26 07:15:30;;;;;;;4.35;3.52;;;;;;;0.16;75.05;101217.03;1751099;80;22727;-67
2022/12/26 07:17:57;;;;;;;3.55;3.10;;;;;;;0.16;74.93;101205.78;1734587;81;22116;-66
2022/12/26 07:20:24;;;;;;;8.45;7.25;;;;;;;0.14;74.77;101214.06;1733997;81;21024;-67
2022/12/26 07:22:50;;;;;;;6.17;4.75;;;;;;;0.11;74.65;101212.84;1738373;80;21059;-67
2022/12/26 07:25:18;;;;;;;4.37;3.95;;;;;;;0.11;74.62;101210.25;1746270;80;21034;-69
2022/12/26 07:27:45;;;;;;;3.92;3.47;;;;;;;0.12;74.59;101204.16;1732727;81;21822;-67
2022/12/26 07:30:13;;;;;;;3.47;3.10;;;;;;;0.13;74.48;101197.62;1736508;81;20999;-68
2022/12/26 07:32:41;;;;;;;3.70;3.17;;;;;;;0.12;74.19;101195.92;1736944;81;20992;-67
2022/12/26 07:35:08;;;;;;;3.65;3.20;;;;;;;0.11;74.04;101193.37;1747715;80;21008;-67
2022/12/26 07:37:35;;;;;;;3.10;2.80;;;;;;;0.10;73.92;101192.52;1743972;81;21038;-67
2022/12/26 07:40:02;;;;;;;2.80;2.45;;;;;;;0.11;73.83;101190.77;1739226;81;21831;-67
2022/12/26 07:42:29;;;;;;;3.77;3.10;;;;;;;0.12;73.70;101191.17;1763473;80;21032;-66
2022/12/26 07:44:56;;;;;;;3.42;3.00;;;;;;;0.09;73.55;101188.17;1728387;81;21333;-67
2022/12/26 07:47:22;;;;;;;4.12;3.33;;;;;;;0.07;73.33;101182.62;1736483;81;21057;-67
2022/12/26 07:49:49;;;;;;;3.25;2.72;;;;;;;0.04;73.27;101187.89;1743964;80;21059;-67
2022/12/26 07:52:18;;;;;;;3.55;2.95;;;;;;;0.06;73.24;101183.06;1747010;80;21928;-68
2022/12/26 07:54:45;;;;;;;3.80;2.83;;;;;;;0.10;73.25;101178.67;1753591;80;21106;-67
2022/12/26 07:57:11;;;;;;;3.27;2.80;;;;;;;0.17;73.25;101177.61;1744257;80;21019;-67
2022/12/26 07:59:38;;;;;;;3.62;2.75;;;;;;;0.22;73.05;101180.97;1741955;80;21058;-67
2022/12/26 08:02:05;;;;;;;3.75;3.25;;;;;;;0.24;72.93;101168.34;1742052;80;21023;-67
2022/12/26 08:04:32;;;;;;;3.47;2.77;;;;;;;0.30;72.76;101180.34;1736589;80;21947;-67
2022/12/26 08:06:59;;;;;;;3.85;3.20;;;;;;;0.34;72.76;101180.67;1744926;80;21058;-67
2022/12/26 08:09:25;;;;;;;4.12;3.10;;;;;;;0.35;72.55;101180.22;1734008;80;21012;-67
2022/12/26 08:11:52;;;;;;;14.87;12.35;;;;;;;0.38;72.56;101188.78;1743058;80;21008;-69
2022/12/26 08:14:20;;;;;;;8.80;6.37;;;;;;;0.44;72.60;101185.20;1747235;80;21076;-68
2022/12/26 08:16:46;;;;;;;6.08;5.37;;;;;;;0.45;72.43;101182.55;1726455;81;22520;-69
2022/12/26 08:19:13;;;;;;;7.22;6.20;;;;;;;0.43;72.11;101184.34;1737519;81;21051;-69
2022/12/26 08:21:40;;;;;;;5.10;4.47;;;;;;;0.42;72.08;101181.78;1736342;81;21064;-68
2022/12/26 08:24:06;;;;;;;4.30;3.58;;;;;;;0.48;72.21;101191.59;1733926;81;21504;-69
2022/12/26 08:26:33;;;;;;;4.53;3.42;;;;;;;0.52;72.25;101180.66;1720003;81;21028;-69
2022/12/26 08:29:00;;;;;;;4.15;3.22;;;;;;;0.56;72.13;101177.94;1745694;81;21833;-69
2022/12/26 08:31:26;;;;;;;3.37;2.90;;;;;;;0.59;72.01;101175.73;1736622;81;21100;-69
2022/12/26 08:33:56;;;;;;;3.30;2.95;;;;;;;0.60;71.94;101168.33;1735988;80;21047;-68
2022/12/26 08:36:22;;;;;;;3.42;2.80;;;;;;;0.63;71.89;101168.69;1761384;80;21000;-68
2022/12/26 08:38:49;;;;;;;3.60;3.00;;;;;;;0.67;71.77;101167.70;1741263;81;21030;-67
2022/12/26 08:41:21;;;;;;;3.42;2.70;;;;;;;0.72;71.76;101160.66;1751653;81;21915;-69
2022/12/26 08:43:50;;;;;;;3.72;2.80;;;;;;;0.76;71.67;101169.62;1750769;80;21482;-71
2022/12/26 08:46:18;;;;;;;3.58;3.08;;;;;;;0.79;71.38;101171.31;1732407;80;21007;-70
2022/12/26 08:48:45;;;;;;;3.83;3.00;;;;;;;0.76;71.24;101167.02;1734223;81;21129;-71
2022/12/26 08:51:21;;;;;;;3.10;2.80;;;;;;;0.81;71.37;101164.31;1731006;80;21004;-69
2022/12/26 08:56:30;;;;;;;3.65;2.90;;;;;;;0.96;71.40;101163.88;1731784;81;21098;-68
2022/12/26 08:58:58;;;;;;;3.75;3.22;;;;;;;1.08;71.34;101157.06;1725907;82;21056;-67
2022/12/26 09:01:29;;;;;;;3.08;2.70;;;;;;;1.19;71.18;101163.27;1749107;81;22270;-69
2022/12/26 09:03:58;;;;;;;3.87;3.17;;;;;;;1.29;71.14;101169.92;1748243;80;21030;-71
2022/12/26 09:06:25;;;;;;;4.00;3.12;;;;;;;1.37;70.85;101161.90;1745747;81;22492;-69
2022/12/26 09:08:51;;;;;;;5.12;4.15;;;;;;;1.40;70.70;101166.55;1756455;81;21464;-70
2022/12/26 09:11:21;;;;;;;18.90;4.97;;;;;;;1.41;70.50;101168.26;1748429;80;21102;-70
2022/12/26 09:13:47;;;;;;;5.30;4.47;;;;;;;1.40;70.32;101169.61;1749708;81;21074;-72
2022/12/26 09:16:18;;;;;;;6.33;5.20;;;;;;;1.42;70.31;101170.41;1744530;80;21035;-70
2022/12/26 09:18:45;;;;;;;61.53;9.35;;;;;;;1.43;70.17;101167.76;1754646;81;21849;-67
2022/12/26 09:21:13;;;;;;;7.30;4.90;;;;;;;1.44;69.98;101162.10;1750304;81;21039;-68
2022/12/26 09:23:40;;;;;;;4.78;4.20;;;;;;;1.38;69.66;101159.70;1745646;81;21063;-69
2022/12/26 09:26:14;;;;;;;6.67;5.42;;;;;;;1.33;69.61;101161.56;1723149;81;21588;-67
2022/12/26 09:28:40;;;;;;;7.40;5.50;;;;;;;1.30;69.70;101160.36;1753758;81;21067;-69
2022/12/26 09:31:11;;;;;;;17.70;13.08;;;;;;;1.32;69.85;101163.77;1745120;81;21826;-69
2022/12/26 09:33:37;;;;;;;34.00;14.58;;;;;;;1.35;69.79;101157.16;1736966;81;21096;-70
2022/12/26 09:36:06;;;;;;;20.02;7.05;;;;;;;1.37;69.63;101165.80;1744045;80;21039;-71
2022/12/26 09:38:33;;;;;;;6.90;5.03;;;;;;;1.35;69.53;101167.16;1756157;81;21012;-71
2022/12/26 09:41:21;;;;;;;10.23;7.08;;;;;;;1.37;69.30;101172.31;1744784;80;21035;-67
2022/12/26 09:44:14;;;;;;;12.58;7.92;;;;;;;1.34;69.15;101169.77;1727989;81;21880;-69
2022/12/26 09:46:58;;;;;;;4.78;3.90;;;;;;;1.36;69.21;101168.00;1746799;81;21040;-68
2022/12/26 09:49:30;;;;;;;;;;;;;;;1.37;69.10;101167.11;1746477;80;21035;-71
2022/12/26 09:52:02;;;;;;;44.20;7.80;;;;;;;1.41;69.08;101164.35;1745009;80;20586;-69
2022/12/26 09:54:36;;;;;;;7.47;3.50;;;;;;;1.41;68.96;101159.14;1742936;81;21486;-69
2022/12/26 09:57:09;;;;;;;11.45;3.58;;;;;;;1.42;68.93;101154.80;1757337;81;22316;-67
2022/12/26 09:59:47;;;;;;;5.83;3.27;;;;;;;1.47;68.96;101152.92;1744362;81;21015;-70
2022/12/26 10:02:20;;;;;;;3.65;3.10;;;;;;;1.57;69.18;101153.05;1749487;81;21038;-68
2022/12/26 10:04:46;;;;;;;;;;;;;;;1.68;69.17;101154.88;1752637;80;21449;-68
2022/12/26 10:07:38;;;;;;;3.60;2.98;;;;;;;1.78;69.11;101142.88;1736363;80;20253;-68
2022/12/26 10:10:21;;;;;;;10.05;3.92;;;;;;;1.81;68.80;101140.17;1752197;81;21819;-68
2022/12/26 10:13:11;;;;;;;9.70;3.33;;;;;;;1.84;68.76;101149.22;1749277;81;22004;-68
2022/12/26 10:15:46;;;;;;;5.55;3.80;;;;;;;1.93;68.85;101143.69;1697397;82;21058;-68
2022/12/26 10:18:40;;;;;;;3.60;3.05;;;;;;;2.02;68.68;101140.80;1666994;81;21517;-67
2022/12/26 10:21:38;;;;;;;3.35;2.95;;;;;;;2.07;68.07;101141.52;1731567;81;21101;-67
2022/12/26 10:24:16;;;;;;;4.05;3.20;;;;;;;2.12;68.21;101133.08;1754333;81;21866;-68
2022/12/26 10:26:52;;;;;;;3.77;3.37;;;;;;;2.20;68.19;101128.93;1732770;81;21530;-68
2022/12/26 10:29:24;;;;;;;4.12;3.20;;;;;;;2.27;68.13;101124.77;1755425;81;21074;-69
2022/12/26 10:32:01;;;;;;;64.32;8.13;;;;;;;2.36;68.11;101125.37;1737213;81;20996;-67
2022/12/26 10:34:49;;;;;;;20.48;4.47;;;;;;;2.43;68.15;101130.80;1742268;81;21055;-67
2022/12/26 10:37:34;;;;;;;6.47;3.45;;;;;;;2.57;68.16;101123.34;1719565;81;23061;-65
2022/12/26 10:40:39;;;;;;;10.03;3.52;;;;;;;2.68;67.82;101117.75;1747833;81;21082;-66
2022/12/26 10:43:29;;;;;;;8.15;3.20;;;;;;;2.68;67.18;101117.30;1763580;80;21030;-68
2022/12/26 10:46:52;;;;;;;17.37;4.87;;;;;;;2.69;67.28;101114.23;1741347;80;21022;-67
2022/12/26 10:49:22;;;;;;;6.58;3.58;;;;;;;2.74;67.25;101107.96;1750247;80;21027;-67
2022/12/26 10:51:50;;;;;;;4.17;3.12;;;;;;;2.81;67.08;101102.08;1736956;81;23264;-67
2022/12/26 10:54:18;;;;;;;4.05;3.22;;;;;;;2.83;66.68;101109.39;1748689;80;21028;-67
2022/12/26 10:56:49;;;;;;;4.35;3.33;;;;;;;2.79;66.48;101103.41;1732419;81;21527;-66
2022/12/26 10:59:26;;;;;;;3.95;3.20;;;;;;;2.76;66.61;101097.02;1739024;81;21070;-68
2022/12/26 11:01:53;;;;;;;5.42;3.17;;;;;;;2.73;66.49;101100.19;1717899;80;21031;-68
2022/12/26 11:04:23;;;;;;;4.28;3.22;;;;;;;2.71;66.48;101096.34;1743528;82;21940;-66
2022/12/26 11:06:51;;;;;;;4.80;3.47;;;;;;;2.70;66.35;101097.67;1740889;81;21061;-67
2022/12/26 11:09:44;;;;;;;5.20;3.80;;;;;;;2.69;66.51;101100.73;1752701;80;21036;-68
2022/12/26 11:12:32;;;;;;;5.35;4.00;;;;;;;2.69;66.53;101099.88;1771675;80;21026;-66
2022/12/26 11:15:04;;;;;;;7.97;4.12;;;;;;;2.63;66.30;101100.12;1764646;79;22046;-66
2022/12/26 11:17:35;;;;;;;4.05;3.65;;;;;;;2.55;66.27;101105.14;1747109;80;21792;-67
2022/12/26 11:20:20;;;;;;;3.98;3.55;;;;;;;2.51;66.30;101103.56;1729286;80;21018;-67
2022/12/26 11:22:46;;;;;;;4.12;3.50;;;;;;;2.46;66.40;101102.84;1759852;79;20996;-68
2022/12/26 11:25:23;;;;;;;5.22;3.58;;;;;;;2.41;66.55;101098.23;1782312;80;21094;-66
2022/12/26 11:27:53;;;;;;;3.70;3.27;;;;;;;2.40;66.60;101098.28;1745995;81;21497;-66
2022/12/26 11:30:28;;;;;;;4.92;3.58;;;;;;;2.38;66.52;101102.70;1738193;81;22645;-66
2022/12/26 11:33:23;;;;;;;4.95;3.55;;;;;;;2.32;66.34;101093.36;1760145;79;21486;-67
2022/12/26 11:35:55;;;;;;;4.72;3.87;;;;;;;2.29;66.39;101096.05;1779993;79;21039;-66
2022/12/26 11:38:34;;;;;;;4.70;4.20;;;;;;;2.29;66.61;101092.98;1748055;81;21027;-66
2022/12/26 11:43:49;;;;;;;4.62;4.00;;;;;;;2.32;66.86;101093.78;1734288;81;21874;-67
2022/12/26 11:46:16;;;;;;;6.35;4.25;;;;;;;2.35;67.06;101100.22;1785930;80;21071;-68
2022/12/26 11:48:49;;;;;;;4.55;3.75;;;;;;;2.38;67.05;101103.55;1742793;80;21533;-66
2022/12/26 11:51:16;;;;;;;4.30;3.62;;;;;;;2.42;67.12;101103.88;1780211;80;21523;-67
2022/12/26 11:53:43;;;;;;;4.20;3.45;;;;;;;2.46;67.04;101103.30;1787233;80;21051;-68
2022/12/26 11:56:10;;;;;;;4.72;4.00;;;;;;;2.50;67.08;101103.58;1714543;81;21802;-66
2022/12/26 11:58:37;;;;;;;4.80;3.90;;;;;;;2.54;66.97;101108.66;1756716;81;21095;-66
2022/12/26 12:01:11;;;;;;;5.85;3.80;;;;;;;2.58;66.99;101107.63;1741047;81;21485;-66
2022/12/26 12:03:43;;;;;;;4.20;3.60;;;;;;;2.62;67.08;101112.77;1750677;80;21003;-66
2022/12/26 12:06:19;;;;;;;4.60;3.75;;;;;;;2.61;66.62;101107.16;1762580;80;21036;-66
2022/12/26 12:08:56;;;;;;;4.28;3.50;;;;;;;2.55;66.58;101108.20;1787565;80;22643;-67
2022/12/26 12:12:12;;;;;;;5.47;4.47;;;;;;;2.57;66.66;101094.20;1736606;81;21055;-67
2022/12/26 12:15:15;;;;;;;4.80;3.83;;;;;;;2.66;66.83;101095.64;1748295;81;21497;-67
2022/12/26 12:18:10;;;;;;;4.40;3.72;;;;;;;2.78;66.81;101096.50;1733379;81;21034;-67
2022/12/26 12:20:55;;;;;;;5.37;3.67;;;;;;;2.90;66.65;101098.30;1738896;82;21078;-66
2022/12/26 12:23:48;;;;;;;4.92;4.00;;;;;;;2.95;66.32;101092.44;1742383;81;21818;-67
2022/12/26 12:26:31;;;;;;;6.05;4.42;;;;;;;2.99;66.19;101087.07;1724964;81;21023;-68
2022/12/26 12:29:40;;;;;;;4.42;3.95;;;;;;;3.05;66.22;101082.06;1726008;81;21123;-67
2022/12/26 12:32:33;;;;;;;5.53;3.40;;;;;;;3.07;66.00;101073.26;1728375;81;21042;-66
2022/12/26 12:35:08;;;;;;;4.85;3.60;;;;;;;3.09;65.79;101076.69;1709654;83;21069;-68
2022/12/26 12:38:26;;;;;;;4.65;3.50;;;;;;;3.05;65.48;101081.61;1742017;81;21853;-69
2022/12/26 12:41:26;;;;;;;7.50;5.60;;;;;;;2.97;65.24;101082.79;1735973;81;21012;-66
2022/12/26 12:44:13;;;;;;;5.28;4.50;;;;;;;2.86;65.25;101091.86;1731979;81;21109;-66
2022/12/26 12:47:16;;;;;;;7.08;4.35;;;;;;;2.80;65.10;101093.41;1721729;80;21031;-67
2022/12/26 12:50:29;;;;;;;4.62;3.92;;;;;;;2.76;65.11;101091.80;1718006;80;21032;-67
2022/12/26 12:53:34;;;;;;;6.33;4.10;;;;;;;2.81;65.11;101085.97;1756113;80;22574;-65
2022/12/26 12:56:35;;;;;;;5.45;4.12;;;;;;;2.87;65.12;101086.19;1732312;81;21479;-65
2022/12/26 12:59:36;;;;;;;4.72;4.22;;;;;;;2.96;64.96;101087.16;1744520;81;21045;-65
2022/12/26 13:02:19;;;;;;;6.28;5.10;;;;;;;3.03;64.88;101082.58;1741505;80;21035;-66
2022/12/26 13:04:50;;;;;;;5.05;4.42;;;;;;;3.06;64.58;101082.00;1742330;80;21041;-67
2022/12/26 13:07:22;;;;;;;5.22;4.00;;;;;;;3.09;64.34;101071.47;1760905;80;22514;-66
2022/12/26 13:10:01;;;;;;;5.92;4.78;;;;;;;3.13;64.25;101072.19;1741202;80;21046;-67
2022/12/26 13:12:34;;;;;;;5.22;3.95;;;;;;;3.20;64.15;101067.14;1776521;80;21031;-68
2022/12/26 13:15:28;;;;;;;5.30;4.00;;;;;;;3.27;63.94;101065.98;1760991;80;21192;-66
2022/12/26 13:18:01;;;;;;;5.22;4.12;;;;;;;3.34;63.85;101063.54;1762851;80;21077;-67
2022/12/26 13:20:41;;;;;;;5.08;3.92;;;;;;;3.42;63.78;101069.32;1748329;80;21784;-67
2022/12/26 13:26:18;;;;;;;5.22;3.65;;;;;;;3.50;63.26;101071.64;1759388;79;21411;-67
2022/12/26 13:29:13;;;;;;;6.83;4.35;;;;;;;3.50;62.97;101074.25;1762255;79;20995;-66
2022/12/26 13:31:40;;;;;;;6.25;5.25;;;;;;;3.36;62.56;101079.98;1754546;80;21018;-65
2022/12/26 13:34:16;;;;;;;6.25;4.55;;;;;;;3.17;62.53;101085.52;1756722;80;21837;-68
2022/12/26 13:36:49;;;;;;;4.95;3.98;;;;;;;3.00;62.67;101088.77;1723298;81;21102;-65
2022/12/26 13:39:28;;;;;;;6.40;4.20;;;;;;;2.82;62.77;101092.05;1755342;79;21122;-66
2022/12/26 13:44:55;;;;;;;6.33;4.62;;;;;;;2.45;63.00;101104.20;1761125;81;21072;-67
2022/12/26 13:47:35;;;;;;;5.55;4.47;;;;;;;2.26;63.22;101097.46;1764399;81;21815;-66
2022/12/26 13:50:48;;;;;;;5.60;4.22;;;;;;;2.12;63.42;101099.66;1764533;79;20986;-66
2022/12/26 13:53:40;;;;;;;6.62;4.72;;;;;;;1.98;63.75;101103.58;1764360;81;21029;-64
2022/12/26 13:56:23;;;;;;;5.30;4.42;;;;;;;1.82;64.08;101097.59;1734537;81;40557;-68
2022/12/26 13:59:13;;;;;;;8.20;4.90;;;;;;;1.70;64.40;101084.52;1743225;82;21506;-66
2022/12/26 14:01:59;;;;;;;6.83;5.05;;;;;;;1.59;64.63;101087.91;1730400;82;21815;-66
2022/12/26 14:04:47;;;;;;;8.70;5.12;;;;;;;1.46;65.02;101084.84;1732585;82;21025;-67
2022/12/26 14:07:19;;;;;;;65.90;32.35;;;;;;;1.37;65.31;101086.42;1700485;83;21376;-67
2022/12/26 14:10:20;;;;;;;52.78;28.83;;;;;;;1.28;65.65;101084.09;1730921;82;21038;-64
2022/12/26 14:13:34;;;;;;;140.10;74.07;;;;;;;1.19;65.94;101083.05;1732363;81;21046;-66
2022/12/26 14:16:25;;;;;;;144.02;82.95;;;;;;;1.09;66.12;101086.38;1734182;81;21791;-65
2022/12/26 14:19:11;;;;;;;94.40;56.70;;;;;;;0.99;66.31;101085.78;1766465;80;22300;-65
2022/12/26 14:22:16;;;;;;;60.60;40.95;;;;;;;0.89;66.56;101090.84;1767115;79;21022;-66